Flight Track Log - Related Links

Times and Time Zones

All times are in EDT time to prevent confusion due to time zone crossing. See the VH-OBW flight status page for this flight to view local times or setup timezone preferences in your user account.

Time Position Orientation Groundspeed Altitude Reporting Facility
EDT Latitude Longitude Course Direction KTS MPH feet Rate Location/Type
Fri 08:52:58 PM -27.5712 152.9795 245° Southwest 74 85 800  Level Aus
Fri 08:53:33 PM -27.5769 152.9654 245° Southwest 81 93 1,100 343 Climbing Aus
Fri 08:54:08 PM -27.5825 152.9475 251° West 99 114 1,200 522 Climbing Aus
Fri 08:54:42 PM -27.5888 152.9284 250° West 109 125 1,700 519 Climbing Aus
Fri 08:55:52 PM -27.5980 152.8945 253° West 97 112 2,100 379 Climbing Aus
Fri 08:56:17 PM -27.6005 152.8822 257° West 95 109 2,300 400 Climbing Aus
Fri 08:56:52 PM -27.6056 152.8653 251° West 97 112 2,500 375 Climbing Aus
Fri 08:57:37 PM -27.6111 152.8433 254° West 96 110 2,800 300 Climbing Aus
Fri 08:58:12 PM -27.6150 152.8251 257° West 101 116 2,900 225 Climbing Aus
Fri 08:58:57 PM -27.6195 152.8026 257° West 98 113 3,100 343 Climbing Aus
Fri 08:59:22 PM -27.6246 152.7903 245° Southwest 102 117 3,300 300 Climbing Aus
Fri 08:59:57 PM -27.6279 152.7732 257° West 98 113 3,400 333 Climbing Aus
Fri 09:00:52 PM -27.6328 152.7455 259° West 94 108 3,800 300 Climbing Aus
Fri 09:01:17 PM -27.6344 152.7321 262° West 100 115 3,800 200 Level Aus
Fri 09:01:52 PM -27.6399 152.7137 252° West 104 120 4,000  Climbing Aus
Fri 09:02:37 PM -27.6278 152.6973 310° West 103 119 3,800 -225 Descending Aus
Fri 09:03:12 PM -27.6224 152.7215 76° East 135 155 3,700 257 Descending Aus
Fri 09:03:47 PM -27.6433 152.7272 166° South 119 137 4,100 185 Climbing Aus
Fri 09:04:17 PM -27.6605 152.7329 164° South 126 145 3,900 -185 Descending Aus
Fri 09:04:52 PM -27.6797 152.7402 161° South 126 145 3,900 -61 Level Aus
Fri 09:05:56 PM -27.6889 152.7236 238° Southwest 110 127 3,800 -67 Descending Aus
Fri 09:06:21 PM -27.6746 152.7252 North 111 128 3,800 -100 Level Aus
Fri 09:06:56 PM -27.6569 152.7278 North 108 124 3,700 150 Descending Aus
Fri 09:07:41 PM -27.6353 152.7346 16° North 106 122 4,000 375 Climbing Aus
Fri 09:08:16 PM -27.6181 152.7401 16° North 112 129 4,200 343 Climbing Aus
Fri 09:08:51 PM -27.6092 152.7245 303° West 107 123 4,400 316 Climbing Aus
Fri 09:09:51 PM -27.6008 152.6930 287° West 107 123 4,700 384 Climbing Aus
Fri 09:10:56 PM -27.5944 152.6578 281° West 107 123 5,200 400 Climbing Aus
Fri 09:11:36 PM -27.5903 152.6368 283° West 102 117 5,400 277 Climbing Aus
Fri 09:12:01 PM -27.5867 152.6243 288° West 98 113 5,500 200 Climbing Aus
Fri 09:12:36 PM -27.5795 152.6073 295° West 97 112 5,600 375 Climbing Aus
Fri 09:13:21 PM -27.5765 152.5831 278° West 100 115 6,000 225 Climbing Aus
Fri 09:13:56 PM -27.5740 152.5640 278° West 104 120 5,900 -86 Descending Aus
Fri 09:14:31 PM -27.5708 152.5434 280° West 115 132 5,900 86 Level Aus
Fri 09:15:06 PM -27.5684 152.5248 278° West 106 122 6,000 64 Climbing Aus
Fri 09:16:05 PM -27.5638 152.4893 278° West 116 133 6,000  Level Aus
Fri 09:16:45 PM -27.5607 152.4624 278° West 126 145 6,000  Level Aus
Fri 09:17:20 PM -27.5576 152.4409 279° West 120 138 6,000  Level Aus
Fri 09:18:05 PM -27.5545 152.4135 277° West 115 132 6,000  Level Aus
Fri 09:18:30 PM -27.5518 152.3992 282° West 109 125 6,000  Level Aus
Fri 09:19:05 PM -27.5498 152.3793 277° West 107 123 6,000  Level Aus
Fri 09:19:50 PM -27.5454 152.3518 280° West 117 135 6,000  Level Aus
Fri 09:20:25 PM -27.5435 152.3303 276° West 117 135 6,000  Level Aus
Fri 09:21:20 PM -27.5361 152.2986 285° West 113 130 6,000  Level Aus
Fri 09:21:45 PM -27.5318 152.2841 289° West 115 132 6,000  Level Aus
Fri 09:22:20 PM -27.5269 152.2642 285° West 111 128 6,000  Level Aus
Fri 09:23:05 PM -27.5205 152.2385 286° West 113 130 6,000  Level Aus
Fri 09:23:40 PM -27.5167 152.2177 282° West 115 132 6,000  Level Aus
Fri 09:24:10 PM -27.5128 152.1998 284° West 117 135 6,000  Level Aus
Fri 09:24:55 PM -27.5055 152.1716 286° West 125 144 6,000  Level Aus
Fri 09:25:29 PM -27.4996 152.1511 288° West 117 135 6,000  Level Aus
Fri 09:26:29 PM -27.4907 152.1155 286° West 115 132 6,000  Level Aus
Fri 09:26:55 PM -27.4869 152.1006 286° West 115 132 6,000  Level Aus
Fri 09:27:29 PM -27.4814 152.0797 286° West 118 136 6,000  Level Aus
Fri 09:28:14 PM -27.4740 152.0539 288° West 113 130 6,000  Level Aus
Fri 09:28:49 PM -27.4686 152.0329 286° West 116 133 6,000  Level Aus
Fri 09:29:39 PM -27.4606 152.0022 286° West 123 142 6,000  Level Aus
Fri 09:30:04 PM -27.4571 151.9871 285° West 121 139 6,000  Level Aus
Fri 09:30:39 PM -27.4515 151.9661 287° West 119 137 6,000  Level Aus
Fri 09:31:39 PM -27.4423 151.9289 286° West 122 140 6,000  Level Aus
Fri 09:32:04 PM -27.4381 151.9138 287° West 123 142 6,000  Level Aus
Fri 09:32:39 PM -27.4325 151.8929 287° West 120 138 6,000  Level Aus
Fri 09:33:24 PM -27.4249 151.8683 289° West 108 124 6,000  Level Aus
Fri 09:33:59 PM -27.4186 151.8464 288° West 123 142 6,000  Level Aus
Fri 09:34:34 PM -27.4130 151.8253 287° West 121 139 6,000  Level Aus
Fri 09:35:04 PM -27.4082 151.8071 287° West 120 138 6,000  Level Aus
Fri 09:35:38 PM -27.4021 151.7864 288° West 119 137 6,000  Level Aus
Fri 09:36:38 PM -27.3948 151.7507 283° West 114 131 6,000  Level Aus
Fri 09:37:03 PM -27.3862 151.7400 312° West 108 124 6,000 -200 Level Aus
Fri 09:37:38 PM -27.3721 151.7259 318° Northwest 114 131 5,800 -467 Descending Aus
Fri 09:38:33 PM -27.3480 151.7021 319° Northwest 128 147 5,300 -467 Descending Aus
Fri 09:39:08 PM -27.3299 151.6919 333° Northwest 129 148 5,100 -600 Descending Aus
Fri 09:39:53 PM -27.3098 151.6726 320° Northwest 130 150 4,500 -686 Descending Aus
Fri 09:40:18 PM -27.2989 151.6625 320° Northwest 123 142 4,300 -400 Descending Aus
Fri 09:40:53 PM -27.2815 151.6493 326° Northwest 128 147 4,100 -316 Descending Aus
Fri 09:41:53 PM -27.2472 151.6438 352° North 148 170 3,800 -141 Descending Aus
Fri 09:42:18 PM -27.2372 151.6559 47° Northeast 131 151 3,900 -200 Climbing Aus
Fri 09:42:53 PM -27.2233 151.6405 315° West 123 142 3,600 -75 Descending Aus
Fri 09:43:38 PM -27.2454 151.6283 206° Southwest 126 145 3,800 225 Climbing Aus
Fri 09:44:13 PM -27.2625 151.6411 146° Southeast 129 148 3,900 86 Climbing Aus
Fri 09:44:48 PM -27.2828 151.6466 166° South 127 146 3,900  Level Aus
Fri 09:45:18 PM -27.2978 151.6590 144° Southeast 141 162 3,900 -277 Level Aus
Fri 09:45:53 PM -27.3167 151.6707 151° Southeast 138 159 3,600 -830 Descending Aus
Fri 09:46:52 PM -27.3438 151.6929 144° Southeast 119 137 2,600 -857 Descending Aus
Fri 09:47:17 PM -27.3552 151.7003 150° Southeast 112 129 2,400 -600 Descending Aus
Fri 09:47:52 PM -27.3705 151.7131 144° Southeast 115 132 2,000 -525 Descending Aus
Fri 09:48:37 PM -27.3897 151.7279 145° Southeast 107 123 1,700 -75 Descending Aus
Fri 09:49:12 PM -27.4047 151.7391 147° Southeast 109 125 1,900 450 Climbing Aus
Fri 09:49:57 PM -27.4197 151.7540 139° Southeast 96 110 2,300 686 Climbing Aus
Fri 09:50:22 PM -27.4303 151.7606 151° Southeast 100 115 2,700 800 Climbing Aus
Fri 09:50:57 PM -27.4460 151.7661 163° South 100 115 3,100 632 Climbing Aus
Fri 09:51:57 PM -27.4707 151.7767 159° South 95 109 3,700 467 Climbing Aus
Fri 09:52:27 PM -27.4816 151.7841 149° Southeast 90 104 3,800 277 Climbing Aus
Fri 09:53:02 PM -27.4954 151.7924 152° Southeast 95 109 4,000 300 Climbing Aus
Fri 09:53:47 PM -27.4944 151.8166 87° East 112 129 4,200 525 Climbing Aus
Fri 09:54:22 PM -27.4985 151.8364 103° East 112 129 4,700 257 Climbing Aus
Fri 09:54:57 PM -27.4987 151.8569 91° East 112 129 4,500 257 Descending Aus
Fri 09:55:32 PM -27.4980 151.8800 88° East 122 140 5,000 609 Climbing Aus
Fri 09:56:06 PM -27.5043 151.9015 108° East 123 142 5,200 143 Climbing Aus
Fri 09:56:56 PM -27.5141 151.9362 108° East 139 160 5,200  Level Aus
Fri 09:57:21 PM -27.5184 151.9541 105° East 141 162 5,200 -200 Level Aus
Fri 09:57:56 PM -27.5253 151.9802 107° East 148 170 5,000 -225 Descending Aus
Fri 09:58:41 PM -27.5344 152.0137 107° East 146 168 4,900 -75 Descending Aus
Fri 09:59:16 PM -27.5412 152.0372 108° East 134 154 4,900 86 Level Aus
Fri 09:59:51 PM -27.5474 152.0593 108° East 132 152 5,000 92 Climbing Aus
Fri 10:00:21 PM -27.5534 152.0810 107° East 141 162 5,000  Level Aus
Fri 10:00:56 PM -27.5588 152.1071 103° East 145 167 5,000  Level Aus
Fri 10:02:06 PM -27.5661 152.1607 99° East 143 165 5,000 -63 Level Aus
Fri 10:02:31 PM -27.5693 152.1778 102° East 136 157 4,900  Descending Aus
Fri 10:03:06 PM -27.5728 152.2027 99° East 135 155 5,000 -75 Climbing Aus
Fri 10:03:51 PM -27.5791 152.2343 103° East 134 154 4,800 -75 Descending Aus
Fri 10:04:26 PM -27.5820 152.2584 98° East 131 151 4,900 75 Climbing Aus
Fri 10:05:11 PM -27.5883 152.2885 103° East 129 148 4,900 -257 Level Aus
Fri 10:05:36 PM -27.6004 152.2978 146° Southeast 122 140 4,600 -100 Descending Aus
Fri 10:06:11 PM -27.6037 152.2707 262° West 131 151 4,800 200 Climbing Aus
Fri 10:07:06 PM -27.6191 152.2425 238° Southwest 120 138 4,900 -75 Climbing Aus
Fri 10:07:31 PM -27.6251 152.2287 244° Southwest 119 137 4,700 -102 Descending Aus
Fri 10:08:05 PM -27.6393 152.2131 224° Southwest 120 138 4,800 76 Climbing Aus
Fri 10:08:50 PM -27.6578 152.1990 214° Southwest 107 123 4,800  Level Aus
Fri 10:09:25 PM -27.6743 152.1879 211° Southwest 117 135 4,800 -75 Level Aus
Fri 10:10:10 PM -27.6891 152.2163 120° Southeast 140 161 4,700 86 Descending Aus
Fri 10:10:35 PM -27.6956 152.2325 114° Southeast 136 157 4,900 500 Climbing Aus
Fri 10:11:10 PM -27.6981 152.2556 97° East 126 145 5,200 -67 Climbing Aus
Fri 10:12:05 PM -27.6778 152.2299 312° West 131 151 4,800 -450 Descending Aus
Fri 10:12:30 PM -27.6775 152.2154 271° West 116 133 4,600 -100 Descending Aus
Fri 10:13:05 PM -27.6661 152.1991 308° West 111 128 4,700 150 Climbing Aus
Fri 10:13:50 PM -27.6526 152.1762 304° West 116 133 4,800 150 Climbing Aus
Fri 10:14:25 PM -27.6469 152.1555 287° West 117 135 4,900  Climbing Aus
Fri 10:15:00 PM -27.6406 152.1353 289° West 115 132 4,800 -429 Descending Aus
Fri 10:15:35 PM -27.6336 152.1158 292° West 115 132 4,400 -171 Descending Aus
Fri 10:16:10 PM -27.6256 152.0970 296° West 113 130 4,600 -114 Climbing Aus
Fri 10:17:20 PM -27.6088 152.0595 297° West 114 131 4,200 -319 Descending Aus
Fri 10:17:44 PM -27.6027 152.0463 298° West 113 130 4,100 -277 Descending Aus
Fri 10:18:25 PM -27.5935 152.0244 295° West 115 132 3,900 -320 Descending Aus
Fri 10:18:59 PM -27.5812 152.0068 308° West 122 140 3,700 -435 Descending Aus
Fri 10:19:34 PM -27.5724 151.9872 297° West 120 138 3,400 -424 Descending Aus
Fri 10:20:24 PM -27.5613 151.9578 293° West 121 139 3,100 -400 Descending Aus
Fri 10:20:49 PM -27.5557 151.9439 295° West 119 137 2,900 -700 Descending Aus
Fri 10:21:24 PM -27.5463 151.9273 302° West 108 124 2,400  Descending Aus
Fri 10:22:14 PM -27.5604 151.9154 217° Southwest 124 143 2,900 880 Climbing Aus
Fri 10:22:39 PM -27.5713 151.9227 149° Southeast 114 131 3,500 1,000 Climbing Aus
Fri 10:23:14 PM -27.5866 151.9243 175° South 101 116 3,900 525 Climbing Aus
Fri 10:23:59 PM -27.6075 151.9264 175° South 102 117 4,200 375 Climbing Aus
Fri 10:24:34 PM -27.6220 151.9385 143° Southeast 112 129 4,400 429 Climbing Aus
Fri 10:25:09 PM -27.6194 151.9621 83° East 123 142 4,700 480 Climbing Aus
Fri 10:25:49 PM -27.6173 151.9879 85° East 123 142 5,000 160 Climbing Aus
Fri 10:26:24 PM -27.6151 152.0132 84° East 135 155 4,900 -60 Descending Aus
Fri 10:27:29 PM -27.6160 152.0604 91° East 141 162 4,900  Level Aus
Fri 10:27:54 PM -27.6157 152.0775 89° East 132 152 4,900  Level Aus
Fri 10:28:28 PM -27.6143 152.1028 87° East 136 157 4,900  Level Aus
Fri 10:29:13 PM -27.6073 152.1346 76° East 135 155 4,900  Level Aus
Fri 10:29:48 PM -27.6024 152.1589 77° East 134 154 4,900  Level Aus
Fri 10:30:23 PM -27.5979 152.1850 79° East 142 163 4,900  Level Aus
Fri 10:30:53 PM -27.5941 152.2074 79° East 144 166 4,900  Level Aus
Fri 10:31:28 PM -27.5896 152.2312 78° East 132 152 4,900  Level Aus
Fri 10:32:33 PM -27.5800 152.2773 77° East 140 161 4,900  Level Aus
Fri 10:32:58 PM -27.5762 152.2951 76° East 139 160 4,900  Level Aus
Fri 10:33:33 PM -27.5710 152.3203 77° East 139 160 4,900  Level Aus
Fri 10:34:18 PM -27.5658 152.3517 79° East 134 154 4,900  Level Aus
Fri 10:34:53 PM -27.5621 152.3763 80° East 135 155 4,900  Level Aus
Fri 10:35:38 PM -27.5577 152.4110 82° East 146 168 4,900  Level Aus
Fri 10:36:03 PM -27.5545 152.4294 79° East 143 165 4,900  Level Aus
Fri 10:36:38 PM -27.5547 152.4548 91° East 139 160 4,900 -63 Level Aus
Fri 10:37:38 PM -27.5566 152.4996 93° East 140 161 4,800 -286 Descending Aus
Fri 10:38:02 PM -27.5563 152.5181 89° East 139 160 4,500 -300 Descending Aus
Fri 10:38:38 PM -27.5584 152.5453 95° East 146 168 4,500 -71 Level Aus
Fri 10:39:27 PM -27.5603 152.5839 93° East 145 167 4,400 -424 Descending Aus
Fri 10:40:03 PM -27.5613 152.6097 92° East 140 161 3,900 -450 Descending Aus
Fri 10:40:47 PM -27.5625 152.6440 92° East 143 165 3,800 -257 Descending Aus
Fri 10:41:13 PM -27.5639 152.6626 95° East 141 162 3,600 -400 Descending Aus
Fri 10:41:47 PM -27.5657 152.6892 94° East 141 162 3,400 -255 Descending Aus
Fri 10:42:47 PM -27.5679 152.7341 93° East 140 161 3,200 -494 Descending Aus
Fri 10:43:12 PM -27.5700 152.7522 98° East 138 159 2,700 -400 Descending Aus
Fri 10:43:47 PM -27.5692 152.7777 88° East 136 157 2,800 80 Climbing Aus
Fri 10:44:27 PM -27.5675 152.8089 87° East 146 168 2,800 80 Level Aus
Fri 10:45:02 PM -27.5651 152.8342 84° East 139 160 2,900 -429 Climbing Aus
Fri 10:45:37 PM -27.5641 152.8609 88° East 143 165 2,300 -771 Descending Aus
Fri 10:46:12 PM -27.5635 152.8887 89° East 147 169 2,000 -514 Descending Aus
Fri 10:46:47 PM -27.5663 152.9156 97° East 145 167 1,700 -500 Descending Aus
Fri 10:47:36 PM -27.5711 152.9540 98° East 145 167 1,300 -486 Descending Aus
Fri 10:48:01 PM -27.5744 152.9720 102° East 140 161 1,100 -321 Descending Aus
Fri 10:48:32 PM -27.5799 152.9911 108° East 128 147 1,000 -80 Descending Aus
Fri 10:49:16 PM -27.5880 153.0168 109° East 115 132 1,000 -304 Level Aus
Fri 10:49:51 PM -27.5771 153.0262 38° Northeast 101 116 600 -686 Descending Aus
Fri 10:50:31 PM -27.5757 153.0094 275° West 77 89 -900 Descending Aus

Login

Don't have an account? Register now (free) for customized features, flight alerts, and more!